Time;durP1;ratioP1;P1;durP2;ratioP2;P2;SDS_P1;SDS_P2;PMS_P1;PMS_P2;Temp;Humidity;BMP_temperature;BMP_pressure;BME280_temperature;BME280_humidity;BME280_pressure;Samples;Min_cycle;Max_cycle;Signal;HPM_P1;HPM_P2
2021/05/30 00:02:55;;;;;;;10.52;4.00;;;;;;;10.59;63.13;102870.09;6213225;28;20233;-71
2021/05/30 00:05:59;;;;;;;9.32;4.47;;;;;;;10.69;62.60;102865.34;6212762;28;20587;-71
2021/05/30 00:09:05;;;;;;;12.48;4.38;;;;;;;10.59;63.00;102875.56;6213149;28;20206;-72
2021/05/30 00:12:11;;;;;;;9.80;4.05;;;;;;;10.32;63.99;102884.91;6213319;28;20220;-72
2021/05/30 00:15:16;;;;;;;8.88;4.40;;;;;;;10.32;64.02;102884.03;6212598;28;20186;-71
2021/05/30 00:18:20;;;;;;;5.25;4.63;;;;;;;10.16;64.49;102878.53;6213600;28;20233;-72
2021/05/30 00:21:23;;;;;;;6.82;4.63;;;;;;;10.20;65.13;102879.88;6213261;28;20190;-71
2021/05/30 00:24:28;;;;;;;8.55;4.38;;;;;;;10.16;64.49;102890.28;6212798;28;20186;-71
2021/05/30 00:27:33;;;;;;;7.70;4.75;;;;;;;10.32;64.28;102894.97;6213246;28;20257;-71
2021/05/30 00:30:37;;;;;;;9.75;4.22;;;;;;;10.39;62.99;102882.34;6195226;28;20391;-71
2021/05/30 00:33:41;;;;;;;12.07;4.97;;;;;;;10.37;63.82;102893.44;6213325;28;20193;-71
2021/05/30 00:36:44;;;;;;;11.00;4.40;;;;;;;10.49;63.73;102892.09;6213002;28;20225;-71
2021/05/30 00:39:48;;;;;;;9.35;4.10;;;;;;;10.25;64.25;102888.44;6212922;28;20225;-71
2021/05/30 00:42:53;;;;;;;9.65;4.20;;;;;;;10.22;65.31;102888.78;6213285;28;20193;-71
2021/05/30 00:45:57;;;;;;;7.18;4.03;;;;;;;10.16;66.37;102889.44;6213138;28;20187;-71
2021/05/30 00:49:00;;;;;;;10.07;4.38;;;;;;;10.23;65.26;102895.94;6211977;28;20193;-71
2021/05/30 00:52:06;;;;;;;11.98;4.38;;;;;;;10.23;66.46;102890.47;6214296;28;20210;-71
2021/05/30 00:55:12;;;;;;;15.35;4.68;;;;;;;10.09;66.23;102890.06;6216651;28;20473;-71
2021/05/30 00:58:17;;;;;;;7.18;4.30;;;;;;;10.08;66.36;102891.09;6216639;28;20193;-71
2021/05/30 01:01:21;;;;;;;4.90;4.40;;;;;;;10.11;67.15;102902.69;6217629;28;20202;-72
2021/05/30 01:04:24;;;;;;;10.55;4.30;;;;;;;10.13;67.24;102896.06;6217212;28;20249;-75
2021/05/30 01:07:30;;;;;;;6.32;4.60;;;;;;;10.02;67.39;102894.47;6216408;28;20524;-71
2021/05/30 01:10:43;;;;;;;4.90;4.47;;;;;;;10.11;67.48;102897.22;6217089;28;20210;-71
2021/05/30 01:13:48;;;;;;;9.00;4.60;;;;;;;9.83;68.50;102897.44;6217640;28;20229;-71
2021/05/30 01:16:52;;;;;;;8.88;4.57;;;;;;;10.07;68.16;102897.56;6217256;28;20218;-71
2021/05/30 01:19:58;;;;;;;13.55;4.50;;;;;;;10.08;68.09;102910.19;6216104;28;20444;-71
2021/05/30 01:23:07;;;;;;;8.07;4.72;;;;;;;9.90;68.59;102879.41;6217193;28;20186;-72
2021/05/30 01:26:11;;;;;;;12.68;4.45;;;;;;;9.89;68.96;102910.41;6217342;28;20202;-72
2021/05/30 01:29:14;;;;;;;9.50;4.50;;;;;;;9.92;68.74;102915.56;6216331;28;20186;-72
2021/05/30 01:32:18;;;;;;;10.43;5.20;;;;;;;9.96;69.60;102906.00;6216950;28;20213;-71
2021/05/30 01:35:22;;;;;;;8.93;5.35;;;;;;;9.81;70.12;102913.09;6216794;28;20193;-71
2021/05/30 01:38:26;;;;;;;13.98;5.78;;;;;;;10.00;69.30;102907.41;6216689;28;20278;-71
2021/05/30 01:41:30;;;;;;;10.02;4.97;;;;;;;9.98;69.47;102914.91;6217098;28;20261;-71
2021/05/30 01:44:34;;;;;;;7.05;3.85;;;;;;;9.94;69.34;102923.56;6216568;28;20193;-71
2021/05/30 01:47:38;;;;;;;8.25;5.60;;;;;;;9.72;71.24;102930.44;6216603;28;20186;-71
2021/05/30 01:50:47;;;;;;;5.60;5.07;;;;;;;9.75;71.38;102908.31;6198341;28;20226;-71
2021/05/30 01:54:00;;;;;;;9.40;5.05;;;;;;;9.94;70.78;102913.50;6198860;28;20193;-71
2021/05/30 01:57:09;;;;;;;5.47;4.70;;;;;;;9.74;71.54;102928.41;6215291;28;20194;-71
2021/05/30 02:00:14;;;;;;;5.82;4.55;;;;;;;9.81;70.87;102913.09;6216178;28;20185;-71
2021/05/30 02:03:28;;;;;;;16.42;5.10;;;;;;;9.86;70.30;102916.19;6215015;28;20202;-71
2021/05/30 02:06:33;;;;;;;5.45;4.70;;;;;;;9.58;72.08;102922.81;6198951;28;20234;-71
2021/05/30 02:09:38;;;;;;;7.97;5.38;;;;;;;9.62;72.25;102932.41;6214998;28;20209;-71
2021/05/30 02:12:45;;;;;;;9.75;4.88;;;;;;;9.52;71.52;102907.13;6214915;28;20435;-71
2021/05/30 02:15:50;;;;;;;12.00;4.82;;;;;;;9.72;70.81;102930.44;6215846;28;20187;-71
2021/05/30 02:18:54;;;;;;;10.05;4.70;;;;;;;9.57;72.07;102934.75;6214799;28;20377;-70
2021/05/30 02:21:59;;;;;;;8.05;4.65;;;;;;;9.64;72.68;102938.56;6216002;28;20229;-71
2021/05/30 02:25:05;;;;;;;8.93;4.65;;;;;;;9.64;72.75;102938.56;6214799;28;20209;-71
2021/05/30 02:28:10;;;;;;;7.60;4.43;;;;;;;9.58;73.11;102931.00;6214628;28;20186;-72
2021/05/30 02:31:14;;;;;;;8.15;4.60;;;;;;;9.48;73.41;102932.97;6214311;28;20210;-71
2021/05/30 02:34:17;;;;;;;7.47;4.07;;;;;;;9.52;73.14;102934.38;6215832;28;20187;-71
2021/05/30 02:37:21;;;;;;;9.05;4.68;;;;;;;9.46;73.83;102940.47;6215362;28;20186;-71
2021/05/30 02:40:26;;;;;;;8.65;4.90;;;;;;;9.45;73.92;102941.47;6215384;28;20217;-71
2021/05/30 02:43:29;;;;;;;10.60;4.70;;;;;;;9.56;72.92;102935.78;6215280;28;20202;-71
2021/05/30 02:46:33;;;;;;;7.60;4.38;;;;;;;9.59;73.18;102932.72;6214120;28;20222;-71
2021/05/30 02:49:37;;;;;;;5.80;4.60;;;;;;;9.45;73.75;102941.47;6215400;28;20186;-71
2021/05/30 02:52:41;;;;;;;6.40;4.40;;;;;;;9.37;74.05;102939.53;6215036;28;20210;-72
2021/05/30 02:55:45;;;;;;;11.88;5.03;;;;;;;9.55;73.92;102944.97;6214298;28;20219;-71
2021/05/30 02:58:49;;;;;;;6.45;4.68;;;;;;;9.48;74.90;102932.97;6215178;28;20187;-71
2021/05/30 03:01:52;;;;;;;9.05;5.22;;;;;;;9.58;74.67;102954.72;6214720;28;20268;-71
2021/05/30 03:04:56;;;;;;;8.63;4.90;;;;;;;9.74;73.86;102944.75;6214961;28;20280;-71
2021/05/30 03:08:00;;;;;;;10.52;4.65;;;;;;;9.77;73.63;102944.44;6214748;28;20186;-71
2021/05/30 03:11:04;;;;;;;7.88;4.75;;;;;;;9.69;74.07;102958.00;6214804;28;20218;-71
2021/05/30 03:14:08;;;;;;;10.77;4.70;;;;;;;9.63;75.41;102953.19;6213582;28;20410;-71
2021/05/30 03:17:12;;;;;;;7.00;4.60;;;;;;;9.41;76.67;102953.72;6213487;28;20371;-71
2021/05/30 03:20:17;;;;;;;8.40;5.15;;;;;;;9.56;76.61;102951.25;6213403;28;20493;-71
2021/05/30 03:23:20;;;;;;;7.13;5.35;;;;;;;9.67;76.25;102951.88;6214452;28;20237;-71
2021/05/30 03:26:25;;;;;;;6.13;4.47;;;;;;;9.74;75.48;102952.94;6213266;28;20217;-71
2021/05/30 03:29:28;;;;;;;8.15;4.55;;;;;;;9.69;76.41;102952.56;6214202;28;20249;-71
2021/05/30 03:32:32;;;;;;;10.10;5.40;;;;;;;9.51;76.93;102942.72;6214129;28;20210;-72
2021/05/30 03:35:36;;;;;;;9.90;5.32;;;;;;;9.70;77.38;102946.09;6213046;28;20217;-71
2021/05/30 03:38:40;;;;;;;6.22;5.38;;;;;;;9.70;77.41;102954.28;6213993;28;20193;-71
2021/05/30 03:41:51;;;;;;;7.47;4.90;;;;;;;9.74;77.12;102946.63;6213659;28;20319;-71
2021/05/30 03:44:57;;;;;;;5.40;4.97;;;;;;;9.80;76.57;102938.66;6212931;28;20477;-72
2021/05/30 03:48:01;;;;;;;5.50;4.85;;;;;;;9.89;76.68;102947.72;6212842;28;20434;-72
2021/05/30 03:51:06;;;;;;;5.70;4.85;;;;;;;10.02;76.23;102938.09;6213726;28;20218;-72
2021/05/30 03:54:09;;;;;;;5.78;4.90;;;;;;;10.11;75.97;102946.31;6196302;28;20242;-71
2021/05/30 03:57:15;;;;;;;8.00;4.97;;;;;;;10.00;76.03;102939.28;6214018;28;20186;-71
2021/05/30 04:00:19;;;;;;;7.05;4.90;;;;;;;10.09;74.93;102944.59;6212652;28;20413;-71
2021/05/30 04:03:23;;;;;;;6.72;5.07;;;;;;;10.04;75.55;102941.50;6214004;28;20202;-71
2021/05/30 04:06:27;;;;;;;5.45;4.95;;;;;;;10.25;74.87;102941.13;6212336;28;20236;-72
2021/05/30 04:09:31;;;;;;;6.07;5.07;;;;;;;10.42;74.48;102939.34;6212431;28;20186;-71
2021/05/30 04:12:37;;;;;;;5.63;4.70;;;;;;;10.23;74.79;102947.78;6213690;28;20214;-71
2021/05/30 04:15:41;;;;;;;8.65;5.07;;;;;;;10.35;74.99;102951.94;6213702;28;20253;-71
2021/05/30 04:18:44;;;;;;;6.70;5.20;;;;;;;10.50;74.30;102947.56;6213470;28;20217;-71
2021/05/30 04:21:48;;;;;;;5.32;4.90;;;;;;;10.46;74.30;102948.88;6213369;28;20190;-72
2021/05/30 04:24:51;;;;;;;7.22;5.00;;;;;;;10.39;74.88;102947.84;6213471;28;20253;-71
2021/05/30 04:27:56;;;;;;;7.68;5.03;;;;;;;10.42;75.10;102947.53;6217739;28;20186;-71
2021/05/30 04:31:00;;;;;;;4.82;4.50;;;;;;;10.54;74.23;102943.47;6218272;28;20218;-72
2021/05/30 04:34:04;;;;;;;6.30;4.57;;;;;;;10.56;74.00;102941.41;6217135;28;20277;-71
2021/05/30 04:37:09;;;;;;;8.45;4.90;;;;;;;10.55;73.59;102939.72;6218215;28;20194;-71
2021/05/30 04:40:13;;;;;;;5.63;5.18;;;;;;;10.66;73.23;102936.66;6218469;28;20363;-71
2021/05/30 04:43:18;;;;;;;8.85;4.97;;;;;;;10.82;73.45;102949.50;6217128;28;20385;-71
2021/05/30 04:46:21;;;;;;;5.25;4.68;;;;;;;10.92;73.66;102931.94;6216979;28;20500;-70
2021/05/30 04:49:25;;;;;;;8.40;4.07;;;;;;;10.99;72.79;102924.75;6217845;28;20186;-71
2021/05/30 04:52:29;;;;;;;12.20;4.25;;;;;;;10.95;70.61;102926.13;6217815;28;20273;-71
2021/05/30 04:55:32;;;;;;;5.18;4.68;;;;;;;10.79;69.28;102898.81;6218019;28;20190;-70
2021/05/30 04:58:37;;;;;;;6.78;3.70;;;;;;;11.06;67.19;102928.56;6200346;28;20273;-71
2021/05/30 05:01:41;;;;;;;4.20;3.50;;;;;;;11.14;67.70;102931.28;6217746;28;20194;-71
2021/05/30 05:04:45;;;;;;;6.75;3.45;;;;;;;11.22;65.88;102934.00;6216368;28;20300;-71
2021/05/30 05:07:48;;;;;;;4.38;3.58;;;;;;;11.29;66.02;102935.03;6217090;28;20186;-71
2021/05/30 05:10:52;;;;;;;3.72;3.30;;;;;;;11.28;64.60;102938.78;6216843;28;20401;-71
2021/05/30 05:13:58;;;;;;;4.00;3.28;;;;;;;11.40;65.00;102942.00;6216283;28;20568;-71
2021/05/30 05:17:01;;;;;;;4.68;2.85;;;;;;;11.38;61.28;102943.22;6216317;28;20190;-71
2021/05/30 05:20:07;;;;;;;5.45;3.70;;;;;;;11.53;63.64;102944.25;6217527;28;20225;-71
2021/05/30 05:23:12;;;;;;;4.07;3.20;;;;;;;11.68;64.56;102948.88;6216450;28;20225;-71
2021/05/30 05:26:16;;;;;;;4.05;3.30;;;;;;;11.78;64.54;102956.91;6216030;28;20229;-71
2021/05/30 05:29:20;;;;;;;3.75;3.15;;;;;;;11.96;61.25;102943.88;6216537;28;20209;-72
2021/05/30 05:32:23;;;;;;;4.75;2.90;;;;;;;12.20;61.38;102951.97;6198980;28;20222;-71
2021/05/30 05:35:28;;;;;;;4.82;3.20;;;;;;;12.44;59.65;102948.28;6216781;28;20186;-71
2021/05/30 05:38:32;;;;;;;3.15;2.83;;;;;;;12.67;60.29;102949.19;6214392;28;20187;-71
2021/05/30 05:41:35;;;;;;;7.35;3.20;;;;;;;12.83;60.68;102943.63;6217047;28;20186;-71
2021/05/30 05:44:40;;;;;;;4.88;3.10;;;;;;;12.95;58.90;102935.81;6216875;28;20264;-71
2021/05/30 05:47:44;;;;;;;8.65;2.83;;;;;;;12.98;57.47;102935.47;6216901;28;20186;-70
2021/05/30 05:50:48;;;;;;;7.30;2.72;;;;;;;13.11;56.35;102946.72;6216703;28;20265;-71
2021/05/30 05:53:52;;;;;;;3.00;2.78;;;;;;;13.31;56.18;102942.44;6216500;28;20274;-71
2021/05/30 05:56:56;;;;;;;6.75;2.55;;;;;;;13.43;54.98;102934.63;6216337;28;20193;-72
2021/05/30 06:00:00;;;;;;;5.60;2.65;;;;;;;13.48;51.81;102940.41;6215274;28;20249;-72
2021/05/30 06:03:17;;;;;;;3.17;2.90;;;;;;;13.67;51.43;102931.63;6215966;28;20284;-72
2021/05/30 06:06:21;;;;;;;2.80;2.42;;;;;;;13.70;51.40;102943.09;6216253;28;20300;-72
2021/05/30 06:09:24;;;;;;;3.30;2.60;;;;;;;13.77;51.68;102943.19;6216094;28;20195;-71
2021/05/30 06:12:28;;;;;;;2.80;2.47;;;;;;;13.90;52.30;102948.03;6216107;28;20277;-71
2021/05/30 06:15:33;;;;;;;2.80;2.55;;;;;;;13.89;51.59;102935.38;6216175;28;20245;-71
2021/05/30 06:18:37;;;;;;;5.50;2.83;;;;;;;14.01;51.12;102942.06;6215193;28;20187;-71
2021/05/30 06:21:41;;;;;;;3.35;2.55;;;;;;;14.10;50.90;102932.69;6215659;28;20191;-71
2021/05/30 06:24:45;;;;;;;5.03;2.42;;;;;;;14.20;50.49;102934.09;6215933;28;20302;-71
2021/05/30 06:27:49;;;;;;;2.42;2.30;;;;;;;14.20;50.06;102934.09;6215879;28;20235;-71
2021/05/30 06:30:54;;;;;;;2.60;2.50;;;;;;;14.28;49.63;102919.44;6214712;28;20194;-71
2021/05/30 06:33:58;;;;;;;3.08;2.35;;;;;;;14.20;49.28;102927.78;6215236;28;20214;-71
2021/05/30 06:37:01;;;;;;;2.53;2.42;;;;;;;14.21;47.82;102934.97;6215165;28;20226;-71
2021/05/30 06:40:07;;;;;;;2.28;2.17;;;;;;;14.28;47.15;102919.44;6215375;28;20224;-71
2021/05/30 06:43:12;;;;;;;3.05;2.22;;;;;;;14.32;46.93;102920.78;6215090;28;20186;-71
2021/05/30 06:46:17;;;;;;;3.55;2.35;;;;;;;14.48;47.45;102917.84;6215110;28;20186;-71
2021/05/30 06:49:21;;;;;;;2.38;2.00;;;;;;;14.60;46.70;102924.53;6214167;28;20190;-73
2021/05/30 06:52:25;;;;;;;2.05;1.95;;;;;;;14.64;46.32;102920.34;6214598;28;20193;-71
2021/05/30 06:55:28;;;;;;;4.18;2.10;;;;;;;14.61;44.59;102917.97;6214208;28;20186;-72
2021/05/30 06:58:32;;;;;;;4.55;2.20;;;;;;;14.77;45.20;102930.63;6213608;28;20505;-71
2021/05/30 07:01:37;;;;;;;2.10;2.10;;;;;;;14.89;44.73;102923.59;6213509;28;20489;-71
2021/05/30 07:04:41;;;;;;;4.78;2.40;;;;;;;14.92;44.40;102928.69;6213442;28;20333;-71
2021/05/30 07:07:44;;;;;;;5.57;2.20;;;;;;;14.98;44.29;102925.16;6213537;28;20481;-71
2021/05/30 07:10:49;;;;;;;2.10;2.00;;;;;;;15.10;44.69;102928.25;6213514;28;20222;-71
2021/05/30 07:13:52;;;;;;;3.00;2.80;;;;;;;15.05;44.22;102926.06;6214275;28;20261;-72
2021/05/30 07:16:57;;;;;;;2.28;2.28;;;;;;;15.05;43.21;102931.56;6214305;28;20234;-72
2021/05/30 07:20:01;;;;;;;4.13;2.20;;;;;;;15.04;44.09;102917.00;6213050;28;20377;-72
2021/05/30 07:23:06;;;;;;;2.08;1.98;;;;;;;15.05;44.64;102929.69;6213023;28;20482;-71
2021/05/30 07:26:10;;;;;;;5.35;2.40;;;;;;;15.00;44.03;102918.41;6214068;28;20187;-72
2021/05/30 07:29:16;;;;;;;4.20;2.03;;;;;;;15.19;43.72;102924.31;6212880;28;20385;-71
2021/05/30 07:32:20;;;;;;;2.38;2.22;;;;;;;15.26;43.71;102925.22;6195489;28;20210;-71
2021/05/30 07:35:24;;;;;;;2.17;1.90;;;;;;;15.40;44.24;102922.41;6212866;28;20404;-72
2021/05/30 07:38:28;;;;;;;2.75;2.50;;;;;;;15.62;44.17;102920.47;6212866;28;20511;-71
2021/05/30 07:41:33;;;;;;;3.40;2.22;;;;;;;15.60;43.72;102922.59;6213444;28;20225;-72
2021/05/30 07:44:37;;;;;;;4.68;2.60;;;;;;;15.74;44.57;102918.84;6213928;28;20190;-72
2021/05/30 07:47:43;;;;;;;6.47;2.40;;;;;;;15.97;44.79;102919.44;6212577;28;20186;-71
2021/05/30 07:50:47;;;;;;;2.53;2.38;;;;;;;16.02;43.60;102911.41;6212496;28;20463;-71
2021/05/30 07:53:50;;;;;;;3.10;2.42;;;;;;;16.12;45.21;102922.09;6212754;28;20217;-71
2021/05/30 07:56:54;;;;;;;2.78;2.10;;;;;;;16.08;43.25;102916.13;6213499;28;20193;-72
2021/05/30 07:59:58;;;;;;;6.88;2.50;;;;;;;16.05;43.08;102921.22;6213698;28;20225;-71
2021/05/30 08:03:03;;;;;;;2.30;2.20;;;;;;;16.10;42.54;102918.69;6212562;28;20209;-72
2021/05/30 08:06:08;;;;;;;2.17;2.08;;;;;;;16.33;42.79;102915.63;6213258;28;20248;-71
2021/05/30 08:09:12;;;;;;;6.95;2.65;;;;;;;16.37;42.67;102914.16;6212292;28;20272;-72
2021/05/30 08:12:15;;;;;;;4.40;2.30;;;;;;;16.43;42.80;102919.72;6213324;28;20186;-72
2021/05/30 08:15:20;;;;;;;3.92;2.38;;;;;;;16.38;41.56;102932.38;6213145;28;20214;-72
2021/05/30 08:18:24;;;;;;;4.43;2.25;;;;;;;16.35;41.17;102916.25;6211987;28;20225;-74
2021/05/30 08:21:28;;;;;;;1.88;1.75;;;;;;;16.44;42.12;102915.00;6213435;28;20186;-71
2021/05/30 08:24:32;;;;;;;2.67;2.47;;;;;;;16.39;39.93;102923.06;6213189;28;20190;-72
2021/05/30 08:27:35;;;;;;;3.90;2.00;;;;;;;16.42;41.83;102914.38;6213307;28;20225;-72
2021/05/30 08:30:40;;;;;;;2.20;2.10;;;;;;;16.45;40.04;102911.22;6212263;28;20469;-72
2021/05/30 08:33:44;;;;;;;2.95;2.67;;;;;;;16.49;39.91;102906.97;6213420;28;20214;-72
2021/05/30 08:36:49;;;;;;;3.33;2.40;;;;;;;16.56;40.52;102914.25;6212920;28;20193;-72
2021/05/30 08:39:52;;;;;;;5.35;2.30;;;;;;;16.58;40.73;102905.78;6211810;28;20218;-72
2021/05/30 08:42:56;;;;;;;4.13;3.90;;;;;;;16.62;39.66;102901.56;6211925;28;20228;-72
2021/05/30 08:45:59;;;;;;;2.90;2.70;;;;;;;16.73;39.53;102909.22;6211459;28;20528;-72
2021/05/30 08:49:05;;;;;;;3.05;2.47;;;;;;;16.76;39.60;102895.03;6211867;28;20409;-71
2021/05/30 08:52:12;;;;;;;4.22;2.72;;;;;;;16.86;38.65;102904.59;6212486;28;20198;-72
2021/05/30 08:55:15;;;;;;;3.22;2.20;;;;;;;16.84;38.81;102894.84;6212451;28;20329;-71
2021/05/30 08:58:19;;;;;;;2.75;2.35;;;;;;;16.75;38.68;102896.06;6212626;28;20225;-72
2021/05/30 09:01:26;;;;;;;2.33;2.22;;;;;;;16.78;39.23;102892.91;6212627;28;20253;-72
2021/05/30 09:04:33;;;;;;;2.33;2.22;;;;;;;16.77;38.89;102891.19;6211218;28;20252;-72
2021/05/30 09:07:39;;;;;;;3.92;2.35;;;;;;;16.82;38.59;102880.41;6212403;28;20249;-71
2021/05/30 09:10:53;;;;;;;2.42;2.22;;;;;;;16.85;38.81;102877.22;6212455;28;20225;-72
2021/05/30 09:14:00;;;;;;;3.10;2.42;;;;;;;16.91;38.94;102879.16;6216050;28;20256;-71
2021/05/30 09:17:07;;;;;;;5.95;1.95;;;;;;;16.88;39.08;102876.81;6215674;28;20508;-72
2021/05/30 09:20:13;;;;;;;3.13;2.25;;;;;;;16.97;39.94;102872.81;6215713;28;20442;-72
2021/05/30 09:23:28;;;;;;;9.18;2.47;;;;;;;17.08;39.96;102879.59;6215639;28;20269;-74
2021/05/30 09:26:31;;;;;;;2.75;2.50;;;;;;;17.16;39.00;102877.47;6216841;28;20187;-71
2021/05/30 09:29:35;;;;;;;8.55;2.67;;;;;;;17.03;38.32;102833.34;6216343;28;20254;-71
2021/05/30 09:33:02;;;;;;;3.67;2.80;;;;;;;17.31;38.89;102871.75;6216705;28;20225;-72
2021/05/30 09:36:07;;;;;;;5.80;2.65;;;;;;;17.24;38.43;102863.47;6210302;28;20273;-72
2021/05/30 09:39:11;;;;;;;96.45;63.70;;;;;;;17.26;38.42;102872.38;6198918;28;20257;-72
2021/05/30 09:42:22;;;;;;;6.70;4.45;;;;;;;17.17;38.08;102856.25;6216531;28;20187;-71
2021/05/30 09:45:26;;;;;;;2.28;2.17;;;;;;;17.25;37.80;102870.69;6216365;28;20222;-71
2021/05/30 09:48:31;;;;;;;2.53;2.33;;;;;;;17.26;38.16;102861.34;6215161;28;20504;-72
2021/05/30 09:51:39;;;;;;;2.88;2.42;;;;;;;17.34;38.46;102874.94;6215789;28;20193;-71
2021/05/30 09:54:43;;;;;;;2.60;2.47;;;;;;;17.32;37.52;102874.31;6215998;28;20241;-71
2021/05/30 09:58:13;;;;;;;3.03;2.90;;;;;;;17.25;37.72;102854.16;6216128;28;20193;-72
2021/05/30 10:01:17;;;;;;;2.60;2.40;;;;;;;17.48;38.35;102867.50;6214737;28;20190;-72
2021/05/30 10:04:24;;;;;;;3.58;2.50;;;;;;;17.59;37.94;102877.91;6215676;28;20213;-72
2021/05/30 10:07:29;;;;;;;2.92;2.78;;;;;;;17.69;38.30;102860.94;6214719;28;20240;-71
2021/05/30 10:10:32;;;;;;;3.15;2.75;;;;;;;17.87;38.01;102866.63;6214581;28;20186;-72
2021/05/30 10:13:36;;;;;;;3.35;3.08;;;;;;;17.87;37.03;102858.34;6214451;28;20525;-72
2021/05/30 10:16:40;;;;;;;2.70;2.53;;;;;;;17.71;35.92;102847.75;6215719;28;20245;-71
2021/05/30 10:19:46;;;;;;;2.63;2.22;;;;;;;17.89;36.73;102856.19;6215248;28;20225;-72
2021/05/30 10:22:54;;;;;;;2.22;2.13;;;;;;;17.96;37.05;102851.50;6215166;28;20249;-72
2021/05/30 10:26:15;;;;;;;4.07;2.35;;;;;;;17.97;37.18;102853.19;6214909;28;20194;-71
2021/05/30 10:29:19;;;;;;;3.65;2.60;;;;;;;17.95;37.13;102836.00;6214496;28;20359;-73
2021/05/30 10:32:26;;;;;;;3.45;2.40;;;;;;;18.07;36.88;102853.59;6215092;28;20254;-72
2021/05/30 10:35:30;;;;;;;2.53;2.42;;;;;;;18.17;37.52;102840.16;6215339;28;20285;-72
2021/05/30 10:38:45;;;;;;;2.75;2.53;;;;;;;18.17;37.00;102842.94;6196978;28;20283;-72
2021/05/30 10:42:07;;;;;;;2.60;2.50;;;;;;;18.30;36.87;102842.88;6215111;28;20195;-71
2021/05/30 10:45:16;;;;;;;4.82;2.40;;;;;;;18.32;36.44;102829.66;6215084;28;20197;-71
2021/05/30 10:48:19;;;;;;;2.50;2.40;;;;;;;18.45;37.65;102835.13;6214318;28;20414;-71
2021/05/30 10:54:35;;;;;;;;;;;;;;;18.59;36.38;102820.19;6215516;28;19925;-72
2021/05/30 10:57:39;;;;;;;;;;;;;;;18.67;36.25;102828.22;6215159;28;19928;-72
2021/05/30 11:00:43;;;;;;;4.90;3.90;;;;;;;18.77;36.77;102832.41;6215318;28;19957;-72
2021/05/30 11:03:53;;;;;;;3.55;3.35;;;;;;;18.81;36.17;102830.88;6212902;28;20224;-72
2021/05/30 11:06:58;;;;;;;3.20;2.90;;;;;;;18.66;36.69;102804.41;6213399;28;20281;-71
2021/05/30 11:10:19;;;;;;;;;;;;;;;18.73;36.95;102832.84;6214571;28;20209;-72
2021/05/30 11:13:23;;;;;;;;;;;;;;;18.67;36.04;102821.81;6214768;28;20022;-72
2021/05/30 11:16:27;;;;;;;;;;;;;;;18.79;35.60;102824.75;6214375;28;19918;-72
2021/05/30 11:19:30;;;;;;;;;;;;;;;18.88;35.82;102824.22;6214901;28;19921;-72
2021/05/30 11:22:39;;;;;;;;;;;;;;;18.98;36.22;102824.56;6215977;28;19996;-72
2021/05/30 11:25:45;;;;;;;;;;;;;;;19.08;35.47;102819.38;6215092;28;19918;-71
2021/05/30 11:28:50;;;;;;;5.10;2.33;;;;;;;18.99;34.76;102820.75;6214662;28;19977;-72
2021/05/30 11:31:53;;;;;;;2.65;2.33;;;;;;;18.99;34.86;102819.91;6213107;28;20377;-71
2021/05/30 11:34:57;;;;;;;2.60;2.40;;;;;;;18.97;35.26;102816.50;6213044;28;20210;-71
2021/05/30 11:38:01;;;;;;;3.08;2.45;;;;;;;18.91;35.01;102795.28;6214084;28;20190;-71
2021/05/30 11:41:11;;;;;;;3.30;2.33;;;;;;;18.99;34.68;102808.84;6212311;28;20489;-72
2021/05/30 11:44:17;;;;;;;6.32;2.35;;;;;;;18.89;35.01;102808.50;6213713;28;20186;-72
2021/05/30 11:47:21;;;;;;;3.03;2.60;;;;;;;18.98;34.52;102809.88;6213822;28;20190;-73
2021/05/30 11:50:30;;;;;;;2.20;2.10;;;;;;;19.06;34.84;102809.63;6213301;28;20240;-71
2021/05/30 11:53:36;;;;;;;3.03;2.20;;;;;;;19.14;34.87;102806.56;6213897;28;20201;-71
2021/05/30 11:56:40;;;;;;;2.83;2.63;;;;;;;19.29;34.64;102804.28;6195750;28;20260;-72
2021/05/30 11:59:53;;;;;;;3.00;2.30;;;;;;;19.29;34.42;102809.84;6212971;28;20394;-71
2021/05/30 12:02:57;;;;;;;3.08;2.88;;;;;;;19.46;35.57;102805.47;6215105;28;20274;-71
2021/05/30 12:06:02;;;;;;;3.00;2.70;;;;;;;19.62;35.52;102793.75;6213975;28;20308;-72
2021/05/30 12:09:06;;;;;;;5.00;2.75;;;;;;;19.73;36.34;102795.78;6212772;28;20376;-71
2021/05/30 12:12:27;;;;;;;;;;;;;;;19.85;34.50;102805.00;6213775;28;20186;-72
2021/05/30 12:15:31;;;;;;;;;;;;;;;20.00;35.73;102791.59;6213870;28;20537;-73
2021/05/30 12:18:35;;;;;;;;;;;;;;;19.79;36.13;102789.31;6211911;28;20197;-72
2021/05/30 12:21:40;;;;;;;;;;;;;;;19.95;36.71;102777.59;6213218;28;20008;-72
2021/05/30 12:24:45;;;;;;;;;;;;;;;20.12;35.81;102782.50;6212936;28;19922;-72
2021/05/30 12:27:48;;;;;;;;;;;;;;;20.29;35.77;102789.09;6211858;28;20192;-72
2021/05/30 12:30:54;;;;;;;12.05;10.77;;;;;;;20.34;35.58;102792.03;6212553;28;20064;-71
2021/05/30 12:34:01;;;;;;;5.97;2.92;;;;;;;20.37;35.51;102792.41;6211390;28;20224;-71
2021/05/30 12:37:04;;;;;;;;;;;;;;;20.43;35.91;102774.00;6212003;28;20468;-71
2021/05/30 12:40:09;;;;;;;;;;;;;;;20.52;35.34;102780.88;6212063;28;19917;-72
2021/05/30 12:43:14;;;;;;;3.35;2.70;;;;;;;20.54;35.13;102775.97;6212148;28;20224;-71
2021/05/30 12:46:19;;;;;;;5.90;2.55;;;;;;;20.55;35.63;102767.41;6212524;28;20365;-73
2021/05/30 12:49:23;;;;;;;2.70;2.50;;;;;;;20.66;36.18;102768.50;6217299;28;20225;-72
2021/05/30 12:52:28;;;;;;;2.63;2.42;;;;;;;20.80;35.74;102764.41;6217052;28;20253;-72
2021/05/30 12:55:37;;;;;;;2.92;2.33;;;;;;;20.88;35.20;102775.19;6216898;28;20260;-71
2021/05/30 12:58:40;;;;;;;2.92;2.70;;;;;;;20.91;36.16;102766.38;6217260;28;20261;-71
2021/05/30 13:01:46;;;;;;;4.05;2.22;;;;;;;20.86;35.65;102774.56;6216697;28;20515;-71
2021/05/30 13:04:50;;;;;;;2.50;2.25;;;;;;;20.76;35.40;102774.31;6216931;28;20297;-73
2021/05/30 13:07:54;;;;;;;2.83;2.58;;;;;;;20.87;35.77;102759.63;6199691;28;20265;-72
2021/05/30 13:10:59;;;;;;;5.50;2.50;;;;;;;21.02;35.83;102751.69;6215965;28;20473;-71
2021/05/30 13:14:02;;;;;;;4.43;2.55;;;;;;;20.98;35.05;102758.78;6217083;28;20186;-72
2021/05/30 13:17:18;;;;;;;3.33;2.42;;;;;;;21.20;35.45;102759.94;6217102;28;20214;-72
2021/05/30 13:20:24;;;;;;;3.25;2.97;;;;;;;21.13;36.12;102759.19;6216608;28;20197;-72
2021/05/30 13:23:30;;;;;;;6.85;5.95;;;;;;;21.28;34.92;102755.94;6198200;28;20341;-71
2021/05/30 13:26:44;;;;;;;6.18;2.75;;;;;;;21.02;34.22;102750.81;6216142;28;20245;-72
2021/05/30 13:30:00;;;;;;;3.95;2.50;;;;;;;20.97;34.84;102734.91;6214934;28;20414;-72
2021/05/30 13:33:05;;;;;;;5.55;4.35;;;;;;;21.35;36.04;102739.13;6215702;28;20249;-71
2021/05/30 13:36:12;;;;;;;5.03;3.03;;;;;;;22.32;34.14;102736.22;6216048;28;20190;-72
2021/05/30 13:39:16;;;;;;;4.30;3.88;;;;;;;22.21;33.56;102734.31;6216377;28;20408;-71
2021/05/30 13:42:20;;;;;;;2.72;2.53;;;;;;;21.94;33.88;102726.84;6215975;28;20477;-71
2021/05/30 13:45:23;;;;;;;4.63;2.40;;;;;;;22.32;33.84;102722.31;6216600;28;20186;-72
2021/05/30 13:48:28;;;;;;;5.95;2.53;;;;;;;23.23;31.45;102720.22;6215824;28;20186;-72
2021/05/30 13:51:31;;;;;;;36.97;24.98;;;;;;;23.23;31.24;102726.66;6215971;28;20186;-72
2021/05/30 13:54:35;;;;;;;2.78;2.58;;;;;;;23.93;30.58;102720.38;6215441;28;20222;-72
2021/05/30 13:57:39;;;;;;;3.70;2.50;;;;;;;23.43;31.19;102713.03;6216242;28;20190;-72
2021/05/30 14:00:43;;;;;;;3.55;2.47;;;;;;;22.81;32.53;102700.38;6215132;28;20251;-72
2021/05/30 14:03:48;;;;;;;2.95;2.50;;;;;;;22.92;31.61;102710.56;6216062;28;20209;-72
2021/05/30 14:06:52;;;;;;;2.83;2.63;;;;;;;22.70;33.21;102692.97;6215348;28;20461;-71
2021/05/30 14:09:56;;;;;;;2.60;2.50;;;;;;;22.85;33.14;102701.56;6215716;28;20395;-73
2021/05/30 14:12:59;;;;;;;3.38;2.65;;;;;;;22.65;33.22;102676.19;6214747;28;20548;-73
2021/05/30 14:16:03;;;;;;;5.78;2.70;;;;;;;22.19;32.76;102689.25;6215706;28;20228;-73
2021/05/30 14:19:08;;;;;;;3.67;2.70;;;;;;;22.21;33.46;102678.72;6215428;28;20233;-72
2021/05/30 14:22:12;;;;;;;2.58;2.40;;;;;;;21.66;33.32;102600.69;6214528;28;20362;-72
2021/05/30 14:25:16;;;;;;;3.53;2.70;;;;;;;22.08;33.45;102679.06;6215014;28;20249;-72
2021/05/30 14:28:19;;;;;;;2.90;2.58;;;;;;;22.24;33.56;102683.78;6215437;28;20273;-72
2021/05/30 14:31:23;;;;;;;3.35;2.33;;;;;;;22.00;32.86;102671.13;6214488;28;20481;-73